Time;durP1;ratioP1;P1;durP2;ratioP2;P2;SDS_P1;SDS_P2;PMS_P1;PMS_P2;Temp;Humidity;BMP_temperature;BMP_pressure;BME280_temperature;BME280_humidity;BME280_pressure;Samples;Min_cycle;Max_cycle;Signal;HPM_P1;HPM_P2
2022/02/15 00:00:15;;;;;;;;;2.25;2.00;;;;;9.68;74.84;100900.69;5053588;28;46026;-75
2022/02/15 00:02:40;;;;;;;;;3.50;2.75;;;;;9.68;74.67;100906.81;5053976;28;46400;-75
2022/02/15 00:05:06;;;;;;;;;7.00;2.50;;;;;9.65;74.83;100906.91;5056496;27;45459;-76
2022/02/15 00:07:31;;;;;;;;;2.25;1.25;;;;;9.58;74.63;100908.03;5052890;28;45664;-75
2022/02/15 00:09:56;;;;;;;;;2.00;1.00;;;;;9.58;74.75;100915.06;5050880;28;45578;-75
2022/02/15 00:12:22;;;;;;;;;0.50;0.50;;;;;9.58;74.83;100913.28;5051239;28;45430;-77
2022/02/15 00:14:47;;;;;;;;;6.75;2.75;;;;;9.57;74.66;100910.72;5053190;28;45450;-75
2022/02/15 00:17:13;;;;;;;;;5.25;3.00;;;;;9.55;75.09;100918.66;5057399;27;45282;-75
2022/02/15 00:19:38;;;;;;;;;2.25;2.25;;;;;9.58;74.98;100909.81;5058129;28;46282;-75
2022/02/15 00:22:04;;;;;;;;;1.75;1.75;;;;;9.55;75.06;100913.41;5056622;28;45440;-75
2022/02/15 00:24:29;;;;;;;;;2.00;1.25;;;;;9.51;74.82;100914.44;5054936;28;45447;-75
2022/02/15 00:26:55;;;;;;;;;4.00;2.00;;;;;9.48;75.05;100919.78;5052210;28;45543;-75
2022/02/15 00:29:20;;;;;;;;;2.00;2.00;;;;;9.46;75.19;100908.50;5070207;28;46890;-75
2022/02/15 00:31:45;;;;;;;;;1.25;1.25;;;;;9.50;75.50;100925.84;5056511;28;45318;-76
2022/02/15 00:34:11;;;;;;;;;2.50;2.00;;;;;9.48;75.13;100924.16;5057217;28;45373;-76
2022/02/15 00:36:36;;;;;;;;;3.25;2.00;;;;;9.48;75.01;100924.16;5054702;28;45423;-75
2022/02/15 00:39:02;;;;;;;;;2.00;2.00;;;;;9.47;75.52;100923.31;5052948;28;46036;-76
2022/02/15 00:41:28;;;;;;;;;4.00;2.75;;;;;9.44;75.16;100928.66;5060326;28;46099;-76
2022/02/15 00:43:53;;;;;;;;;1.50;1.50;;;;;9.39;75.37;100933.22;5054416;28;45481;-76
2022/02/15 00:46:18;;;;;;;;;2.00;1.67;;;;;9.33;75.11;100941.28;5054694;28;52628;-75
2022/02/15 00:48:44;;;;;;;;;1.00;1.00;;;;;9.29;75.17;100943.19;5057669;28;46110;-75
2022/02/15 00:51:09;;;;;;;;;1.00;1.00;;;;;9.28;75.53;100945.84;5057558;27;45653;-76
2022/02/15 00:53:34;;;;;;;;;2.00;2.00;;;;;9.27;75.92;100947.59;5052300;28;45321;-76
2022/02/15 00:55:59;;;;;;;;;1.50;1.50;;;;;9.28;75.40;100954.56;5054143;28;45456;-76
2022/02/15 00:58:25;;;;;;;;;1.25;1.25;;;;;9.28;75.92;100944.06;5051856;28;45344;-76
2022/02/15 01:00:50;;;;;;;;;6.75;3.00;;;;;9.29;75.88;100945.81;5052003;28;45366;-76
2022/02/15 01:03:16;;;;;;;;;1.75;1.75;;;;;9.27;75.71;100952.84;5051840;28;45768;-75
2022/02/15 01:05:41;;;;;;;;;2.00;1.25;;;;;9.23;75.39;100961.72;5051726;28;45328;-76
2022/02/15 01:08:07;;;;;;;;;3.75;2.00;;;;;9.18;75.16;100962.78;5053002;28;45508;-76
2022/02/15 01:10:32;;;;;;;;;2.50;1.25;;;;;9.17;75.63;100967.19;5054286;28;45407;-76
2022/02/15 01:12:58;;;;;;;;;2.00;1.25;;;;;9.14;76.03;100957.66;5055250;28;45389;-76
2022/02/15 01:15:23;;;;;;;;;1.75;1.75;;;;;9.12;75.70;100972.56;5055266;28;45346;-75
2022/02/15 01:17:49;;;;;;;;;1.00;1.00;;;;;9.10;76.05;100974.41;5055307;28;45347;-76
2022/02/15 01:20:15;;;;;;;;;2.25;2.00;;;;;9.11;76.40;100976.13;5056169;28;45332;-76
2022/02/15 01:22:40;;;;;;;;;2.00;1.75;;;;;9.14;76.33;100977.78;5056784;28;45405;-75
2022/02/15 01:25:06;;;;;;;;;1.75;1.75;;;;;9.20;76.20;100985.44;5053572;28;45489;-75
2022/02/15 01:27:32;;;;;;;;;3.00;1.00;;;;;9.20;75.79;100972.34;5054938;28;45541;-76
2022/02/15 01:29:57;;;;;;;;;2.00;2.00;;;;;9.23;76.10;100984.47;5055013;28;45372;-75
2022/02/15 01:32:22;;;;;;;;;3.75;2.75;;;;;9.24;76.27;100979.19;5054282;28;45397;-76
2022/02/15 01:34:48;;;;;;;;;4.50;2.00;;;;;9.28;76.38;100987.81;5056584;28;45362;-76
2022/02/15 01:37:13;;;;;;;;;6.75;2.00;;;;;9.30;76.16;100986.00;5055103;28;45362;-75
2022/02/15 01:39:39;;;;;;;;;4.25;2.00;;;;;9.29;76.27;100992.13;5055123;28;45434;-76
2022/02/15 01:42:04;;;;;;;;;2.00;2.00;;;;;9.28;75.88;100988.66;5052152;28;45382;-76
2022/02/15 01:44:30;;;;;;;;;1.25;1.25;;;;;9.27;76.11;100986.09;5055256;28;45291;-76
2022/02/15 01:46:56;;;;;;;;;3.00;3.00;;;;;9.28;76.29;100996.53;5056817;28;46425;-75
2022/02/15 01:49:22;;;;;;;;;1.75;1.00;;;;;9.26;75.85;101000.13;5054319;28;45574;-76
2022/02/15 01:51:47;;;;;;;;;2.50;2.00;;;;;9.27;75.97;101001.81;5055188;28;45373;-76
2022/02/15 01:54:12;;;;;;;;;2.00;2.00;;;;;9.23;76.01;100998.44;5055796;28;45466;-76
2022/02/15 01:56:38;;;;;;;;;3.00;1.75;;;;;9.25;76.29;101006.28;5054521;28;45401;-76
2022/02/15 01:59:03;;;;;;;;;1.75;1.75;;;;;9.24;76.13;101002.81;5056018;28;45392;-76
2022/02/15 02:01:29;;;;;;;;;3.50;2.00;;;;;9.24;76.21;101015.03;5054767;28;46091;-76
2022/02/15 02:03:54;;;;;;;;;4.00;1.25;;;;;9.25;76.31;101025.50;5052727;28;45502;-76
2022/02/15 02:06:19;;;;;;;;;1.00;1.00;;;;;9.23;75.96;101010.69;5054590;28;45530;-76
2022/02/15 02:08:45;;;;;;;;;1.00;1.00;;;;;9.15;75.99;101027.56;5054963;28;45453;-76
2022/02/15 02:11:10;;;;;;;;;4.00;1.00;;;;;9.11;76.18;101035.56;5055815;28;45490;-76
2022/02/15 02:13:36;;;;;;;;;1.00;1.00;;;;;9.05;75.75;101035.75;5053252;28;45337;-76
2022/02/15 02:16:01;;;;;;;;;2.00;2.00;;;;;8.99;76.38;101042.06;5052851;28;46055;-76
2022/02/15 02:18:26;;;;;;;;;2.00;2.00;;;;;8.96;76.28;101038.66;5054211;28;45523;-76
2022/02/15 02:20:52;;;;;;;;;2.00;2.00;;;;;8.96;76.67;101038.66;5054073;28;45532;-76
2022/02/15 02:23:20;;;;;;;;;1.75;1.50;;;;;8.95;76.19;101043.06;5054854;28;45510;-76
2022/02/15 02:25:45;;;;;;;;;4.00;2.00;;;;;8.93;76.52;101031.78;5055927;28;46126;-76
2022/02/15 02:28:11;;;;;;;;;2.00;2.00;;;;;8.89;76.61;101033.63;5052711;28;45520;-76
2022/02/15 02:30:37;;;;;;;;;0.75;0.75;;;;;8.85;76.68;101033.75;5052197;28;45320;-76
2022/02/15 02:33:04;;;;;;;;;2.00;2.00;;;;;8.86;76.54;101038.09;5054062;28;45551;-76
2022/02/15 02:35:30;;;;;;;;;1.25;1.00;;;;;8.86;76.70;101038.09;5054265;28;46099;-76
2022/02/15 02:37:56;;;;;;;;;2.50;1.00;;;;;8.88;76.82;101049.41;5054632;28;45421;-76
2022/02/15 02:40:22;;;;;;;;;5.25;2.00;;;;;8.91;76.72;101045.81;5054187;28;45276;-76
2022/02/15 02:42:47;;;;;;;;;2.25;1.00;;;;;8.89;76.26;101051.13;5053021;28;45507;-76
2022/02/15 02:45:19;;;;;;;;;1.75;1.00;;;;;8.89;76.48;101051.13;5053213;28;45556;-75
2022/02/15 02:47:48;;;;;;;;;1.00;1.00;;;;;8.90;76.88;101055.44;5052182;28;45856;-76
2022/02/15 02:50:15;;;;;;;;;3.00;1.75;;;;;8.94;76.90;101062.31;5055296;28;45474;-76
2022/02/15 02:52:41;;;;;;;;;0.00;0.00;;;;;8.98;76.85;101073.53;5055972;28;45515;-76
2022/02/15 02:55:07;;;;;;;;;3.00;1.75;;;;;8.98;76.59;101071.81;5053610;28;46422;-76
2022/02/15 02:57:35;;;;;;;;;2.75;1.00;;;;;8.98;76.63;101068.31;5053870;28;47450;-76
2022/02/15 03:00:03;;;;;;;;;2.00;0.00;;;;;8.95;76.79;101073.66;5055256;28;45508;-75
2022/02/15 03:02:28;;;;;;;;;3.00;2.00;;;;;8.94;76.45;101083.28;5053314;28;45332;-76
2022/02/15 03:04:53;;;;;;;;;5.25;0.25;;;;;8.92;76.28;101076.34;5055542;28;48241;-76
2022/02/15 03:07:20;;;;;;;;;0.00;0.00;;;;;8.82;76.41;101073.16;5053064;28;45520;-76
2022/02/15 03:09:45;;;;;;;;;2.00;2.00;;;;;8.75;76.56;101082.13;5052690;28;45278;-76
2022/02/15 03:12:12;;;;;;;;;2.50;2.25;;;;;8.66;76.41;101082.38;5053741;28;45551;-76
2022/02/15 03:14:38;;;;;;;;;1.25;0.75;;;;;8.61;76.49;101096.50;5038535;28;47128;-76
2022/02/15 03:17:03;;;;;;;;;1.50;0.75;;;;;8.57;76.60;101089.63;5055402;28;45564;-76
2022/02/15 03:19:28;;;;;;;;;1.00;1.00;;;;;8.52;76.63;101104.63;5053213;28;45552;-76
2022/02/15 03:21:54;;;;;;;;;1.75;1.50;;;;;8.47;76.72;101108.28;5053709;28;45472;-76
2022/02/15 03:24:19;;;;;;;;;3.75;1.25;;;;;8.41;76.75;101114.53;5053112;28;45879;-76
2022/02/15 03:26:45;;;;;;;;;3.00;1.25;;;;;8.37;77.17;101112.91;5053665;28;45527;-76
2022/02/15 03:29:13;;;;;;;;;1.00;1.00;;;;;8.32;77.22;101115.59;5055263;28;45800;-75
2022/02/15 03:31:40;;;;;;;;;1.00;0.50;;;;;8.26;77.25;101121.03;5053246;28;45477;-76
2022/02/15 03:34:05;;;;;;;;;1.75;1.75;;;;;8.22;77.28;101131.59;5052135;28;46130;-76
2022/02/15 03:36:30;;;;;;;;;4.75;1.25;;;;;8.18;77.43;101132.59;5046389;28;46966;-75
2022/02/15 03:38:56;;;;;;;;;0.75;0.75;;;;;8.14;77.63;101147.50;5053304;28;45811;-75
2022/02/15 03:44:05;;;;;;;;;1.75;0.50;;;;;8.18;77.54;101153.53;5050882;28;45499;-76
2022/02/15 03:46:30;;;;;;;;;1.00;1.00;;;;;8.20;78.00;101149.13;5052050;28;45721;-76
2022/02/15 03:48:56;;;;;;;;;1.00;1.00;;;;;8.24;78.10;101159.47;5053298;28;45589;-75
2022/02/15 03:51:21;;;;;;;;;1.75;0.00;;;;;8.32;77.96;101164.50;5050682;28;45630;-76
2022/02/15 03:53:46;;;;;;;;;1.50;1.50;;;;;8.34;77.93;101168.78;5053094;28;46080;-75
2022/02/15 03:56:13;;;;;;;;;1.50;1.00;;;;;8.40;77.67;101167.78;5054519;28;45220;-75
2022/02/15 03:58:39;;;;;;;;;1.75;1.50;;;;;8.44;77.59;101176.44;5052926;28;45292;-75
2022/02/15 04:01:04;;;;;;;;;1.00;1.00;;;;;8.44;77.12;101179.91;5051688;28;45487;-76
2022/02/15 04:03:30;;;;;;;;;1.00;0.00;;;;;8.44;77.54;101176.44;5052815;28;45523;-75
2022/02/15 04:05:55;;;;;;;;;0.75;0.00;;;;;8.45;77.55;101186.88;5052002;28;45511;-76
2022/02/15 04:08:24;;;;;;;;;1.00;1.00;;;;;8.45;77.36;101186.00;5053385;28;45430;-75
2022/02/15 04:10:50;;;;;;;;;1.25;0.00;;;;;8.40;77.03;101191.38;5052832;28;45329;-76
2022/02/15 04:13:16;;;;;;;;;1.00;0.00;;;;;8.32;77.03;101188.06;5051449;28;46243;-75
2022/02/15 04:15:42;;;;;;;;;1.00;1.00;;;;;8.23;77.26;101193.53;5034714;28;45688;-76
2022/02/15 04:18:07;;;;;;;;;0.50;0.50;;;;;8.17;76.87;101197.19;5053187;28;45554;-76
2022/02/15 04:20:33;;;;;;;;;1.00;1.00;;;;;8.13;76.91;101215.63;5052682;28;45554;-75
2022/02/15 04:22:58;;;;;;;;;0.00;0.00;;;;;8.03;77.09;101210.59;5046915;28;45419;-76
2022/02/15 04:25:24;;;;;;;;;1.50;0.25;;;;;7.99;77.12;101222.06;5050811;28;45250;-75
2022/02/15 04:27:49;;;;;;;;;3.00;0.00;;;;;7.94;77.48;101226.56;5049888;28;45483;-76
2022/02/15 04:30:16;;;;;;;;;1.00;0.00;;;;;7.89;77.49;101231.03;5052454;28;45439;-76
2022/02/15 04:32:41;;;;;;;;;1.75;1.00;;;;;7.85;77.73;101237.25;5052884;28;45343;-76
2022/02/15 04:35:08;;;;;;;;;2.00;0.00;;;;;7.81;77.70;101251.28;5054631;28;45611;-76
2022/02/15 04:37:34;;;;;;;;;0.50;0.50;;;;;7.78;77.38;101241.75;5051085;28;45580;-76
2022/02/15 04:39:59;;;;;;;;;1.00;1.00;;;;;7.75;77.49;101254.91;5052654;28;45361;-76
2022/02/15 04:42:24;;;;;;;;;1.50;1.00;;;;;7.71;77.85;101250.63;5051152;28;45460;-76
2022/02/15 04:44:50;;;;;;;;;3.75;0.75;;;;;7.69;77.91;101254.19;5054840;28;45475;-75
2022/02/15 04:47:16;;;;;;;;;2.25;0.00;;;;;7.65;77.62;101253.38;5056877;28;45483;-75
2022/02/15 04:49:41;;;;;;;;;2.50;0.50;;;;;7.61;78.04;101258.72;5057278;28;45404;-76
2022/02/15 04:52:06;;;;;;;;;1.25;1.00;;;;;7.56;78.07;101262.28;5054423;28;45442;-76
2022/02/15 04:54:32;;;;;;;;;0.75;0.75;;;;;7.55;78.31;101257.09;5055793;28;45473;-76
2022/02/15 04:56:57;;;;;;;;;3.50;2.00;;;;;7.51;78.21;101269.38;5049443;28;45788;-75
2022/02/15 04:59:22;;;;;;;;;1.75;1.00;;;;;7.50;77.67;101277.25;5056445;28;45756;-75
2022/02/15 05:01:48;;;;;;;;;3.00;1.00;;;;;7.46;78.15;101281.69;5055359;28;46125;-75
2022/02/15 05:06:58;;;;;;;;;2.00;0.25;;;;;7.42;78.34;101282.69;5056641;28;45628;-75
2022/02/15 05:09:27;;;;;;;;;0.50;0.00;;;;;7.40;77.96;101294.03;5054417;28;45491;-75
2022/02/15 05:11:53;;;;;;;;;5.00;1.00;;;;;7.36;77.98;101295.88;5055565;28;49654;-75
2022/02/15 05:14:19;;;;;;;;;1.50;0.50;;;;;7.35;78.31;101290.66;5055324;28;45398;-75
2022/02/15 05:16:44;;;;;;;;;1.00;1.00;;;;;7.32;78.19;101297.69;5056559;28;45491;-75
2022/02/15 05:19:10;;;;;;;;;2.00;1.00;;;;;7.30;78.26;101298.59;5053879;28;45230;-75
2022/02/15 05:21:35;;;;;;;;;6.00;2.00;;;;;7.27;78.63;101296.06;5054364;28;61247;-75
2022/02/15 05:24:00;;;;;;;;;2.50;2.50;;;;;7.26;78.53;101304.81;5050317;28;45439;-75
2022/02/15 05:26:26;;;;;;;;;3.00;3.00;;;;;7.25;78.76;101295.22;5055067;28;49426;-75
2022/02/15 05:28:51;;;;;;;;;9.00;1.00;;;;;7.23;78.87;101289.16;5057394;28;45619;-75
2022/02/15 05:31:16;;;;;;;;;2.00;1.00;;;;;7.22;78.64;101290.94;5054983;28;46201;-75
2022/02/15 05:33:42;;;;;;;;;2.50;1.25;;;;;7.19;78.70;101298.81;5054996;28;45598;-75
2022/02/15 05:36:07;;;;;;;;;6.25;1.50;;;;;7.17;78.74;101298.00;5055274;28;45276;-75
2022/02/15 05:38:32;;;;;;;;;1.25;1.25;;;;;7.13;78.97;101293.72;5054934;28;45466;-75
2022/02/15 05:40:58;;;;;;;;;4.00;1.75;;;;;7.13;78.77;101300.69;5055685;28;47477;-75
2022/02/15 05:43:23;;;;;;;;;1.75;1.25;;;;;7.10;79.03;101303.34;5054848;28;45427;-75
2022/02/15 05:45:49;;;;;;;;;3.00;2.00;;;;;7.10;78.89;101308.59;5055799;28;45435;-75
2022/02/15 05:48:14;;;;;;;;;5.25;1.00;;;;;7.08;79.16;101303.41;5055260;28;45538;-76
2022/02/15 05:50:52;;;;;;;;;3.00;1.25;;;;;7.06;78.89;101295.59;5055844;28;45447;-76
2022/02/15 05:53:23;;;;;;;;;5.00;0.50;;;;;7.05;79.09;101298.25;5053481;28;45949;-75
2022/02/15 05:55:52;;;;;;;;;1.00;1.00;;;;;7.03;79.04;101294.78;5054666;28;45470;-76
2022/02/15 05:58:18;;;;;;;;;0.50;0.50;;;;;7.01;79.34;101297.44;5054629;28;45575;-76
2022/02/15 06:00:43;;;;;;;;;1.00;1.00;;;;;6.98;79.43;101302.72;5054165;28;45547;-75
2022/02/15 06:05:53;;;;;;;;;3.25;1.25;;;;;6.93;79.34;101309.78;5054948;28;45463;-76
2022/02/15 06:08:19;;;;;;;;;2.75;1.00;;;;;6.92;79.37;101313.28;5055855;28;45730;-75
2022/02/15 06:10:46;;;;;;;;;1.00;1.00;;;;;6.91;79.84;101311.56;5054739;28;46571;-76
2022/02/15 06:13:12;;;;;;;;;1.50;1.00;;;;;6.92;79.61;101323.72;5054345;28;45832;-76
2022/02/15 06:15:37;;;;;;;;;1.75;1.00;;;;;6.91;79.51;101329.00;5054567;28;45527;-76
2022/02/15 06:18:03;;;;;;;;;1.00;1.00;;;;;6.90;79.54;101338.59;5054558;28;47171;-75
2022/02/15 06:20:28;;;;;;;;;4.25;2.25;;;;;6.87;79.67;101341.25;5054273;28;46508;-76
2022/02/15 06:22:54;;;;;;;;;1.50;1.50;;;;;6.86;79.62;101339.53;5055946;28;45586;-76
2022/02/15 06:25:19;;;;;;;;;2.00;2.00;;;;;6.86;79.75;101346.50;5053274;28;45466;-76
2022/02/15 06:27:44;;;;;;;;;2.00;1.00;;;;;6.85;79.46;101343.03;5053377;28;45443;-76
2022/02/15 06:30:10;;;;;;;;;2.50;1.25;;;;;6.85;79.42;101344.78;5051861;28;45565;-75
2022/02/15 06:32:35;;;;;;;;;5.50;4.00;;;;;6.81;79.82;101336.13;5053547;28;45333;-76
2022/02/15 06:35:01;;;;;;;;;1.25;1.25;;;;;6.80;79.92;101340.50;5055974;28;45343;-76
2022/02/15 06:37:26;;;;;;;;;5.25;1.25;;;;;6.76;79.71;101346.66;5052818;28;45335;-76
2022/02/15 06:39:52;;;;;;;;;1.50;1.50;;;;;6.77;79.83;101344.91;5055213;28;45974;-75
2022/02/15 06:42:18;;;;;;;;;3.00;1.50;;;;;6.76;79.88;101351.03;5052543;28;45406;-75
2022/02/15 06:44:44;;;;;;;;;1.75;1.75;;;;;6.74;79.88;101356.28;5054290;28;45384;-76
2022/02/15 06:47:09;;;;;;;;;3.00;1.00;;;;;6.71;80.04;101350.25;5053790;28;45533;-75
2022/02/15 06:49:34;;;;;;;;;4.50;1.00;;;;;6.74;79.77;101358.91;5053129;28;46159;-75
2022/02/15 06:51:59;;;;;;;;;3.00;2.00;;;;;6.72;79.92;101365.03;5053961;28;45542;-75
2022/02/15 06:54:26;;;;;;;;;2.50;2.25;;;;;6.71;79.90;101377.22;5053666;28;45483;-75
2022/02/15 06:56:51;;;;;;;;;2.25;2.00;;;;;6.70;79.98;101380.72;5054151;28;45700;-75
2022/02/15 06:59:16;;;;;;;;;3.00;1.50;;;;;6.71;79.74;101384.19;5054364;28;46225;-75
2022/02/15 07:01:43;;;;;;;;;1.00;1.00;;;;;6.70;79.81;101391.19;5053443;28;45384;-76
2022/02/15 07:04:11;;;;;;;;;4.50;1.00;;;;;6.70;79.77;101399.00;5053816;28;46123;-75
2022/02/15 07:06:36;;;;;;;;;5.00;2.00;;;;;6.72;79.83;101393.75;5053702;28;45557;-75
2022/02/15 07:09:01;;;;;;;;;0.50;0.50;;;;;6.72;79.96;101386.78;5052681;28;46077;-76
2022/02/15 07:11:27;;;;;;;;;3.00;2.00;;;;;6.77;79.47;101397.16;5053774;28;45502;-75
2022/02/15 07:13:52;;;;;;;;;6.00;3.00;;;;;6.79;79.51;101405.84;5055414;28;45380;-76
2022/02/15 07:16:18;;;;;;;;;3.50;2.00;;;;;6.83;79.30;101399.66;5054632;28;45476;-76
2022/02/15 07:18:44;;;;;;;;;2.00;0.00;;;;;6.86;79.06;101404.84;5053097;28;46144;-76
2022/02/15 07:21:10;;;;;;;;;0.50;0.50;;;;;6.88;79.49;101396.97;5054092;28;45445;-76
2022/02/15 07:23:35;;;;;;;;;3.00;1.50;;;;;6.92;79.18;101401.25;5053574;28;45487;-76
2022/02/15 07:26:01;;;;;;;;;1.75;1.00;;;;;6.94;79.20;101404.69;5055445;28;45423;-75
2022/02/15 07:28:28;;;;;;;;;2.25;0.50;;;;;6.99;78.85;101408.09;5053060;28;46140;-75
2022/02/15 07:30:54;;;;;;;;;1.25;0.25;;;;;7.07;78.93;101408.84;5052331;28;47514;-77
2022/02/15 07:33:19;;;;;;;;;2.00;2.00;;;;;7.14;78.95;101405.22;5052247;28;45376;-75
2022/02/15 07:35:44;;;;;;;;;5.25;3.00;;;;;7.26;78.77;101402.41;5052683;28;45521;-77
2022/02/15 07:38:17;;;;;;;;;2.25;2.00;;;;;7.54;78.87;101407.94;5067310;28;45572;-76
2022/02/15 07:40:43;;;;;;;;;4.75;2.25;;;;;7.98;78.10;101403.53;5050446;28;45467;-75
2022/02/15 07:43:08;;;;;;;;;7.00;2.00;;;;;8.72;78.15;101412.34;5050286;28;45512;-75
2022/02/15 07:45:34;;;;;;;;;7.75;6.50;;;;;9.76;76.93;101413.09;5050489;28;45462;-76
2022/02/15 07:47:59;;;;;;;;;0.50;0.50;;;;;10.59;74.24;101414.06;5048763;28;47004;-75
2022/02/15 07:50:25;;;;;;;;;6.00;2.25;;;;;11.17;72.72;101414.78;5050372;28;48273;-75
2022/02/15 07:52:52;;;;;;;;;6.00;3.75;;;;;11.43;70.90;101413.00;5050034;28;45398;-75
2022/02/15 07:55:18;;;;;;;;;8.25;6.75;;;;;11.53;69.89;101413.53;5049868;28;45442;-75
2022/02/15 07:57:44;;;;;;;;;7.50;4.00;;;;;11.89;69.51;101417.47;5049995;28;46187;-76
2022/02/15 08:00:10;;;;;;;;;3.50;2.75;;;;;12.77;69.60;101412.25;5050685;28;45447;-75
2022/02/15 08:02:36;;;;;;;;;1.50;1.00;;;;;13.75;67.06;101414.19;5050530;28;45492;-75
2022/02/15 08:05:01;;;;;;;;;4.75;3.00;;;;;14.68;65.27;101411.59;5050867;28;45657;-75
2022/02/15 08:07:32;;;;;;;;;3.75;1.00;;;;;15.81;64.37;101412.84;5049615;28;45469;-75
2022/02/15 08:09:59;;;;;;;;;1.50;1.50;;;;;16.94;61.63;101417.97;5048419;28;45225;-75
2022/02/15 08:12:24;;;;;;;;;1.00;1.00;;;;;18.01;60.89;101421.25;5042901;28;45556;-76
2022/02/15 08:14:50;;;;;;;;;4.50;2.00;;;;;18.85;57.30;101429.09;5041558;28;45541;-75
2022/02/15 08:17:15;;;;;;;;;3.75;3.00;;;;;18.89;55.49;101438.56;5035874;28;45997;-76
2022/02/15 08:19:40;;;;;;;;;13.75;6.00;;;;;19.14;56.26;101450.25;5046035;28;45464;-76
2022/02/15 08:22:06;;;;;;;;;6.00;3.25;;;;;19.89;54.74;101440.63;5048028;28;45571;-75
2022/02/15 08:24:31;;;;;;;;;9.00;8.75;;;;;20.65;54.63;101442.25;5046714;28;45445;-75
2022/02/15 08:26:57;;;;;;;;;4.50;2.00;;;;;21.52;53.13;101443.66;5049517;28;46296;-76
2022/02/15 08:29:23;;;;;;;;;3.75;2.25;;;;;22.32;50.98;101438.19;5050367;28;45398;-75
2022/02/15 08:31:50;;;;;;;;;6.75;2.25;;;;;23.25;49.74;101444.81;5047073;28;45497;-76
2022/02/15 08:34:15;;;;;;;;;2.75;2.00;;;;;24.05;47.51;101442.28;5045532;28;45336;-75
2022/02/15 08:36:41;;;;;;;;;4.50;2.00;;;;;24.77;46.98;101443.88;5053429;28;45422;-75
2022/02/15 08:39:07;;;;;;;;;2.50;2.50;;;;;25.31;45.10;101450.53;5067815;28;45422;-75
2022/02/15 08:41:33;;;;;;;;;6.00;3.75;;;;;25.87;43.40;101456.94;5066089;28;45438;-75
2022/02/15 08:43:58;;;;;;;;;18.00;15.50;;;;;26.53;43.15;101456.75;5051836;28;45528;-75
2022/02/15 08:46:25;;;;;;;;;4.50;4.00;;;;;27.33;41.91;101464.91;5066166;28;46183;-76
2022/02/15 08:48:50;;;;;;;;;3.50;2.00;;;;;28.03;40.82;101457.59;5058831;28;45674;-75
2022/02/15 08:51:18;;;;;;;;;1.75;1.00;;;;;28.56;39.64;101468.13;5055138;28;45553;-75
2022/02/15 08:53:45;;;;;;;;;1.25;0.75;;;;;29.13;38.92;101464.66;5056324;28;46870;-76
2022/02/15 08:56:11;;;;;;;;;2.25;2.00;;;;;29.71;36.98;101463.59;5055973;28;46155;-78
2022/02/15 08:58:36;;;;;;;;;4.50;1.25;;;;;30.09;37.35;101461.09;5053997;28;45320;-73
2022/02/15 09:01:02;;;;;;;;;2.75;2.75;;;;;30.44;35.96;101467.06;5036318;28;45344;-77
2022/02/15 09:03:28;;;;;;;;;5.00;2.00;;;;;30.65;35.29;101468.09;5054702;28;45512;-76
2022/02/15 09:05:54;;;;;;;;;4.00;2.00;;;;;30.99;34.30;101468.72;5055261;28;45462;-75
2022/02/15 09:08:20;;;;;;;;;2.00;1.00;;;;;31.35;33.64;101463.53;5054691;28;47519;-75
2022/02/15 09:10:45;;;;;;;;;3.75;2.00;;;;;31.66;34.29;101466.94;5053174;28;45364;-76
2022/02/15 09:13:11;;;;;;;;;3.50;2.00;;;;;31.87;32.42;101460.78;5045747;28;45470;-76
2022/02/15 09:15:36;;;;;;;;;3.25;2.75;;;;;31.93;31.47;101461.91;5053633;28;45610;-76
2022/02/15 09:18:01;;;;;;;;;5.75;1.75;;;;;32.10;29.97;101441.63;5034862;28;45546;-76
2022/02/15 09:20:27;;;;;;;;;3.75;2.00;;;;;32.07;31.62;101427.56;5049048;28;47126;-76
2022/02/15 09:22:52;;;;;;;;;2.50;2.00;;;;;32.60;30.58;101426.31;5054014;28;45538;-76
2022/02/15 09:25:18;;;;;;;;;2.75;1.00;;;;;32.78;30.93;101435.91;5052240;28;46010;-75
2022/02/15 09:27:44;;;;;;;;;6.75;3.00;;;;;32.98;30.03;101445.97;5054014;28;45375;-75
2022/02/15 09:30:09;;;;;;;;;1.25;1.25;;;;;33.57;29.95;101438.47;5055188;28;45408;-75
2022/02/15 09:32:35;;;;;;;;;5.25;2.25;;;;;33.92;29.00;101440.13;5053023;28;45303;-77
2022/02/15 09:35:01;;;;;;;;;5.75;3.25;;;;;34.02;29.21;101439.78;5040999;28;45392;-76
2022/02/15 09:37:27;;;;;;;;;2.25;2.25;;;;;34.25;27.89;101443.03;5052923;28;46674;-75
2022/02/15 09:39:55;;;;;;;;;3.25;1.00;;;;;33.99;27.81;101442.94;5050558;28;45547;-76
2022/02/15 09:42:24;;;;;;;;;3.00;3.00;;;;;34.13;27.83;101455.56;5053668;28;45514;-75
2022/02/15 09:44:49;;;;;;;;;3.00;1.75;;;;;34.26;27.35;101466.56;5049020;28;46250;-75
2022/02/15 09:47:24;;;;;;;;;2.75;2.00;;;;;34.48;26.65;101456.34;5053826;28;45323;-75
2022/02/15 09:49:51;;;;;;;;;3.00;2.00;;;;;33.96;26.37;101460.53;5058283;28;45529;-75
2022/02/15 09:52:24;;;;;;;;;7.00;3.00;;;;;32.64;27.27;101462.16;5057115;28;45514;-76
2022/02/15 09:54:52;;;;;;;;;2.50;1.00;;;;;32.34;26.09;101456.78;5052119;28;46230;-75
2022/02/15 09:57:19;;;;;;;;;2.00;1.75;;;;;30.58;26.78;101455.41;5060664;28;45478;-75
2022/02/15 09:59:46;;;;;;;;;3.00;2.00;;;;;30.72;27.99;101459.28;5053574;28;45517;-75
2022/02/15 10:02:17;;;;;;;;;5.00;2.25;;;;;31.33;28.17;101466.44;5060564;28;45727;-75
2022/02/15 10:04:42;;;;;;;;;0.25;0.25;;;;;32.08;26.98;101470.88;5054573;28;46354;-75
2022/02/15 10:07:09;;;;;;;;;5.00;1.50;;;;;32.59;27.43;101461.91;5054263;28;45399;-75
2022/02/15 10:09:35;;;;;;;;;4.00;2.00;;;;;32.08;27.00;101457.28;5053805;28;45316;-76
2022/02/15 10:12:08;;;;;;;;;2.25;1.75;;;;;30.21;26.51;101470.53;5054085;28;45453;-76
2022/02/15 10:14:38;;;;;;;;;3.00;3.00;;;;;27.62;28.56;101476.28;5057763;28;45233;-76
2022/02/15 10:17:07;;;;;;;;;1.50;1.50;;;;;25.44;29.85;101477.16;5055058;28;45768;-76
2022/02/15 10:19:33;;;;;;;;;3.75;3.00;;;;;23.84;31.59;101477.25;5053475;28;45287;-76
2022/02/15 10:21:59;;;;;;;;;2.25;2.00;;;;;23.21;33.11;101475.56;5040576;28;45666;-76
2022/02/15 10:24:28;;;;;;;;;4.50;2.50;;;;;23.67;33.51;101464.47;5053103;28;46280;-76
2022/02/15 10:27:07;;;;;;;;;2.00;1.25;;;;;23.79;32.94;101470.59;5056228;28;45458;-75
2022/02/15 10:29:37;;;;;;;;;3.75;3.25;;;;;23.35;33.64;101475.25;5053889;28;45502;-76
2022/02/15 10:32:04;;;;;;;;;4.25;2.00;;;;;22.55;34.46;101484.56;5055075;28;45560;-75
2022/02/15 10:34:30;;;;;;;;;2.25;1.00;;;;;21.64;34.92;101490.00;5054488;28;45505;-75
2022/02/15 10:37:02;;;;;;;;;5.50;3.00;;;;;20.87;36.09;101491.41;5053846;28;45403;-75
2022/02/15 10:39:43;;;;;;;;;6.00;3.00;;;;;20.00;36.65;101486.06;5054086;28;45573;-76
2022/02/15 10:42:14;;;;;;;;;6.00;4.00;;;;;19.13;37.85;101491.19;5044137;28;45886;-74
2022/02/15 10:45:08;;;;;;;;;5.75;2.25;;;;;18.20;38.73;101493.59;5051418;28;46516;-76
2022/02/15 10:47:40;;;;;;;;;2.25;2.00;;;;;17.47;40.63;101490.09;5054135;28;45712;-75
2022/02/15 10:50:11;;;;;;;;;4.00;2.00;;;;;17.16;41.58;101486.59;5051057;28;45407;-73
2022/02/15 10:52:37;;;;;;;;;5.00;3.00;;;;;17.06;41.64;101474.78;5055463;28;45702;-77
2022/02/15 10:55:04;;;;;;;;;4.25;2.50;;;;;16.95;42.74;101461.28;5053615;28;45525;-75
2022/02/15 10:57:29;;;;;;;;;5.75;3.00;;;;;16.90;42.43;101455.38;5054264;28;45479;-75
2022/02/15 10:59:57;;;;;;;;;2.75;2.75;;;;;17.10;43.15;101452.44;5053879;28;45388;-74
2022/02/15 11:02:30;;;;;;;;;29.25;27.00;;;;;17.56;43.61;101447.03;5053534;28;45513;-72
2022/02/15 11:04:57;;;;;;;;;8.00;4.00;;;;;18.11;42.68;101445.44;5035923;28;47482;-72
2022/02/15 11:07:26;;;;;;;;;7.25;3.00;;;;;18.46;42.01;101440.53;5043315;28;45934;-72
2022/02/15 11:10:13;;;;;;;;;5.00;3.00;;;;;18.81;42.17;101453.38;5052033;28;45554;-72
2022/02/15 11:12:48;;;;;;;;;4.25;2.75;;;;;19.22;42.75;101440.81;5051322;28;45323;-70
2022/02/15 11:15:21;;;;;;;;;4.25;2.25;;;;;19.80;41.97;101435.94;5050312;28;46195;-72
2022/02/15 11:18:12;;;;;;;;;5.75;3.00;;;;;20.13;41.41;101437.16;5050233;28;45776;-70
2022/02/15 11:20:54;;;;;;;;;3.25;2.75;;;;;20.21;40.89;101441.00;5050019;28;45577;-73
2022/02/15 11:23:22;;;;;;;;;6.00;4.00;;;;;20.15;40.76;101428.09;5050700;28;45486;-74
2022/02/15 11:25:49;;;;;;;;;4.75;2.50;;;;;20.17;40.58;101428.81;5029732;28;46171;-74
2022/02/15 11:28:16;;;;;;;;;2.75;2.75;;;;;19.95;40.59;101424.19;5050996;28;45419;-76
2022/02/15 11:31:02;;;;;;;;;5.25;2.25;;;;;19.90;40.93;101414.81;5049787;28;45276;-72
2022/02/15 11:33:30;;;;;;;;;4.75;4.00;;;;;19.91;41.23;101420.03;5042204;28;45480;-74
2022/02/15 11:36:06;;;;;;;;;6.75;5.50;;;;;19.94;41.53;101422.47;5042960;28;45669;-75